Terminal Aerodrome Forecast
Issued by NWS

Home | Current Version | Previous Version | Text Only | Print | Product List | Glossary On
Versions: 1 2 3 4 5 6 7 8 9 10 11 12 13 14 15 16 17 18 19 20 21 22 23 24
239
FTUS43 KLSX 250520
TAFCPS
TAF
KCPS 250520Z 2506/2606 14010KT 5SM -RA BR VCTS OVC050CB
      TEMPO 2506/2509 VRB20G30KT 2SM TSRA OVC030CB
     FM251100 17009KT P6SM BKN090
     FM251700 15012G20KT 6SM -RA VCTS BKN035CB
     FM260100 15007KT P6SM BKN035=

USA.gov is the U.S. government's official web portal to all federal, state and local government web resources and services.